sensor_id;sensor_type;location;lat;lon;timestamp;P1;durP1;ratioP1;P2;durP2;ratioP2
10795;SDS011;5450;42.994;23.372;2022-11-11T00:00:25;20.67;;;14.30;;
10795;SDS011;5450;42.994;23.372;2022-11-11T00:02:53;18.47;;;13.90;;
10795;SDS011;5450;42.994;23.372;2022-11-11T00:05:21;22.50;;;14.73;;
10795;SDS011;5450;42.994;23.372;2022-11-11T00:07:48;19.20;;;12.93;;
10795;SDS011;5450;42.994;23.372;2022-11-11T00:10:17;18.40;;;13.43;;
10795;SDS011;5450;42.994;23.372;2022-11-11T00:12:44;20.03;;;15.03;;
10795;SDS011;5450;42.994;23.372;2022-11-11T00:15:11;20.03;;;13.93;;
10795;SDS011;5450;42.994;23.372;2022-11-11T00:17:41;17.03;;;13.50;;
10795;SDS011;5450;42.994;23.372;2022-11-11T00:20:25;19.67;;;14.33;;
10795;SDS011;5450;42.994;23.372;2022-11-11T00:23:12;16.67;;;13.10;;
10795;SDS011;5450;42.994;23.372;2022-11-11T00:26:03;16.60;;;13.07;;
10795;SDS011;5450;42.994;23.372;2022-11-11T00:28:30;17.33;;;12.63;;
10795;SDS011;5450;42.994;23.372;2022-11-11T00:31:00;17.67;;;13.30;;
10795;SDS011;5450;42.994;23.372;2022-11-11T00:33:30;16.87;;;12.83;;
10795;SDS011;5450;42.994;23.372;2022-11-11T00:35:57;17.00;;;13.27;;
10795;SDS011;5450;42.994;23.372;2022-11-11T00:38:24;19.27;;;13.77;;
10795;SDS011;5450;42.994;23.372;2022-11-11T00:41:09;17.33;;;13.60;;
10795;SDS011;5450;42.994;23.372;2022-11-11T00:43:37;18.90;;;13.63;;
10795;SDS011;5450;42.994;23.372;2022-11-11T00:46:04;18.73;;;13.63;;
10795;SDS011;5450;42.994;23.372;2022-11-11T00:48:50;18.90;;;13.77;;
10795;SDS011;5450;42.994;23.372;2022-11-11T00:51:35;19.47;;;14.13;;
10795;SDS011;5450;42.994;23.372;2022-11-11T00:54:02;19.77;;;13.87;;
10795;SDS011;5450;42.994;23.372;2022-11-11T00:56:29;16.93;;;12.83;;
10795;SDS011;5450;42.994;23.372;2022-11-11T00:58:57;20.33;;;12.63;;
10795;SDS011;5450;42.994;23.372;2022-11-11T01:01:24;16.77;;;12.90;;
10795;SDS011;5450;42.994;23.372;2022-11-11T01:03:53;18.90;;;13.97;;
10795;SDS011;5450;42.994;23.372;2022-11-11T01:06:20;18.17;;;12.73;;
10795;SDS011;5450;42.994;23.372;2022-11-11T01:08:47;14.97;;;12.50;;
10795;SDS011;5450;42.994;23.372;2022-11-11T01:11:18;20.27;;;13.03;;
10795;SDS011;5450;42.994;23.372;2022-11-11T01:13:47;17.90;;;12.90;;
10795;SDS011;5450;42.994;23.372;2022-11-11T01:16:16;17.93;;;12.73;;
10795;SDS011;5450;42.994;23.372;2022-11-11T01:18:44;15.77;;;12.27;;
10795;SDS011;5450;42.994;23.372;2022-11-11T01:21:14;17.37;;;12.40;;
10795;SDS011;5450;42.994;23.372;2022-11-11T01:23:43;17.33;;;13.20;;
10795;SDS011;5450;42.994;23.372;2022-11-11T01:26:12;20.83;;;13.53;;
10795;SDS011;5450;42.994;23.372;2022-11-11T01:28:40;17.50;;;13.87;;
10795;SDS011;5450;42.994;23.372;2022-11-11T01:31:11;19.50;;;14.10;;
10795;SDS011;5450;42.994;23.372;2022-11-11T01:33:40;20.00;;;14.43;;
10795;SDS011;5450;42.994;23.372;2022-11-11T01:36:07;19.30;;;14.33;;
10795;SDS011;5450;42.994;23.372;2022-11-11T01:38:38;22.07;;;16.17;;
10795;SDS011;5450;42.994;23.372;2022-11-11T01:41:07;21.73;;;15.13;;
10795;SDS011;5450;42.994;23.372;2022-11-11T01:43:54;23.30;;;17.13;;
10795;SDS011;5450;42.994;23.372;2022-11-11T01:46:29;24.93;;;17.07;;
10795;SDS011;5450;42.994;23.372;2022-11-11T01:49:02;23.93;;;16.87;;
10795;SDS011;5450;42.994;23.372;2022-11-11T01:51:45;24.03;;;17.57;;
10795;SDS011;5450;42.994;23.372;2022-11-11T01:54:18;26.23;;;17.50;;
10795;SDS011;5450;42.994;23.372;2022-11-11T01:56:54;26.73;;;17.80;;
10795;SDS011;5450;42.994;23.372;2022-11-11T01:59:24;23.50;;;16.20;;
10795;SDS011;5450;42.994;23.372;2022-11-11T02:01:53;20.83;;;16.20;;
10795;SDS011;5450;42.994;23.372;2022-11-11T02:04:20;20.03;;;14.20;;
10795;SDS011;5450;42.994;23.372;2022-11-11T02:07:05;18.93;;;13.70;;
10795;SDS011;5450;42.994;23.372;2022-11-11T02:09:36;19.00;;;13.43;;
10795;SDS011;5450;42.994;23.372;2022-11-11T02:12:07;16.80;;;13.00;;
10795;SDS011;5450;42.994;23.372;2022-11-11T02:14:53;18.83;;;13.07;;
10795;SDS011;5450;42.994;23.372;2022-11-11T02:17:24;17.30;;;12.53;;
10795;SDS011;5450;42.994;23.372;2022-11-11T02:19:53;17.23;;;13.43;;
10795;SDS011;5450;42.994;23.372;2022-11-11T02:22:23;18.50;;;13.23;;
10795;SDS011;5450;42.994;23.372;2022-11-11T02:24:59;19.47;;;14.27;;
10795;SDS011;5450;42.994;23.372;2022-11-11T02:27:28;23.17;;;16.00;;
10795;SDS011;5450;42.994;23.372;2022-11-11T02:29:57;27.77;;;16.03;;
10795;SDS011;5450;42.994;23.372;2022-11-11T02:32:26;25.63;;;15.73;;
10795;SDS011;5450;42.994;23.372;2022-11-11T02:34:54;25.50;;;16.43;;
10795;SDS011;5450;42.994;23.372;2022-11-11T02:37:21;28.47;;;17.97;;
10795;SDS011;5450;42.994;23.372;2022-11-11T02:39:49;31.37;;;19.97;;
10795;SDS011;5450;42.994;23.372;2022-11-11T02:42:21;29.83;;;19.00;;
10795;SDS011;5450;42.994;23.372;2022-11-11T02:44:49;27.57;;;17.67;;
10795;SDS011;5450;42.994;23.372;2022-11-11T02:47:22;23.77;;;16.60;;
10795;SDS011;5450;42.994;23.372;2022-11-11T02:49:50;22.20;;;15.50;;
10795;SDS011;5450;42.994;23.372;2022-11-11T02:52:18;25.50;;;15.90;;
10795;SDS011;5450;42.994;23.372;2022-11-11T02:54:45;22.10;;;16.37;;
10795;SDS011;5450;42.994;23.372;2022-11-11T02:57:13;22.93;;;16.30;;
10795;SDS011;5450;42.994;23.372;2022-11-11T02:59:43;23.43;;;15.90;;
10795;SDS011;5450;42.994;23.372;2022-11-11T03:02:13;21.80;;;15.13;;
10795;SDS011;5450;42.994;23.372;2022-11-11T03:04:40;21.07;;;14.77;;
10795;SDS011;5450;42.994;23.372;2022-11-11T03:07:07;22.47;;;16.17;;
10795;SDS011;5450;42.994;23.372;2022-11-11T03:09:34;22.83;;;15.70;;
10795;SDS011;5450;42.994;23.372;2022-11-11T03:12:01;21.73;;;16.30;;
10795;SDS011;5450;42.994;23.372;2022-11-11T03:14:29;20.90;;;15.67;;
10795;SDS011;5450;42.994;23.372;2022-11-11T03:16:57;24.27;;;15.77;;
10795;SDS011;5450;42.994;23.372;2022-11-11T03:19:41;20.57;;;15.07;;
10795;SDS011;5450;42.994;23.372;2022-11-11T03:22:08;22.77;;;15.33;;
10795;SDS011;5450;42.994;23.372;2022-11-11T03:24:34;21.27;;;15.33;;
10795;SDS011;5450;42.994;23.372;2022-11-11T03:27:18;21.03;;;15.43;;
10795;SDS011;5450;42.994;23.372;2022-11-11T03:29:45;19.37;;;14.17;;
10795;SDS011;5450;42.994;23.372;2022-11-11T03:32:13;24.37;;;15.67;;
10795;SDS011;5450;42.994;23.372;2022-11-11T03:34:40;21.20;;;15.17;;
10795;SDS011;5450;42.994;23.372;2022-11-11T03:37:08;21.30;;;15.00;;
10795;SDS011;5450;42.994;23.372;2022-11-11T03:39:54;23.37;;;15.00;;
10795;SDS011;5450;42.994;23.372;2022-11-11T03:42:21;20.50;;;16.50;;
10795;SDS011;5450;42.994;23.372;2022-11-11T03:44:48;18.87;;;14.63;;
10795;SDS011;5450;42.994;23.372;2022-11-11T03:47:16;21.17;;;16.07;;
10795;SDS011;5450;42.994;23.372;2022-11-11T03:49:45;19.43;;;14.87;;
10795;SDS011;5450;42.994;23.372;2022-11-11T03:52:12;22.33;;;15.70;;
10795;SDS011;5450;42.994;23.372;2022-11-11T03:54:39;23.77;;;14.93;;
10795;SDS011;5450;42.994;23.372;2022-11-11T03:57:07;19.20;;;14.90;;
10795;SDS011;5450;42.994;23.372;2022-11-11T03:59:51;19.97;;;14.13;;
10795;SDS011;5450;42.994;23.372;2022-11-11T04:02:19;21.50;;;15.87;;
10795;SDS011;5450;42.994;23.372;2022-11-11T04:05:04;20.87;;;14.70;;
10795;SDS011;5450;42.994;23.372;2022-11-11T04:07:49;19.90;;;15.30;;
10795;SDS011;5450;42.994;23.372;2022-11-11T04:10:34;19.97;;;12.70;;
10795;SDS011;5450;42.994;23.372;2022-11-11T04:13:02;18.77;;;13.80;;
10795;SDS011;5450;42.994;23.372;2022-11-11T04:15:51;19.67;;;15.40;;
10795;SDS011;5450;42.994;23.372;2022-11-11T04:18:36;20.50;;;15.70;;
10795;SDS011;5450;42.994;23.372;2022-11-11T04:21:20;21.07;;;14.97;;
10795;SDS011;5450;42.994;23.372;2022-11-11T04:24:06;18.87;;;13.90;;
10795;SDS011;5450;42.994;23.372;2022-11-11T04:26:47;20.60;;;15.33;;
10795;SDS011;5450;42.994;23.372;2022-11-11T04:29:14;19.83;;;15.77;;
10795;SDS011;5450;42.994;23.372;2022-11-11T04:31:54;19.80;;;15.17;;
10795;SDS011;5450;42.994;23.372;2022-11-11T04:34:44;19.53;;;14.63;;
10795;SDS011;5450;42.994;23.372;2022-11-11T04:37:12;18.30;;;13.87;;
10795;SDS011;5450;42.994;23.372;2022-11-11T04:39:39;18.20;;;14.00;;
10795;SDS011;5450;42.994;23.372;2022-11-11T04:42:27;21.63;;;14.63;;
10795;SDS011;5450;42.994;23.372;2022-11-11T04:44:56;20.30;;;14.57;;
10795;SDS011;5450;42.994;23.372;2022-11-11T04:47:51;17.43;;;13.77;;
10795;SDS011;5450;42.994;23.372;2022-11-11T04:50:20;19.00;;;13.63;;
10795;SDS011;5450;42.994;23.372;2022-11-11T04:52:48;19.30;;;13.80;;
10795;SDS011;5450;42.994;23.372;2022-11-11T04:55:15;18.67;;;13.73;;
10795;SDS011;5450;42.994;23.372;2022-11-11T04:58:00;17.17;;;14.00;;
10795;SDS011;5450;42.994;23.372;2022-11-11T05:00:27;18.17;;;14.47;;
10795;SDS011;5450;42.994;23.372;2022-11-11T05:02:55;17.30;;;14.37;;
10795;SDS011;5450;42.994;23.372;2022-11-11T05:05:41;18.53;;;14.23;;
10795;SDS011;5450;42.994;23.372;2022-11-11T05:08:27;19.10;;;14.70;;
10795;SDS011;5450;42.994;23.372;2022-11-11T05:11:11;21.13;;;15.10;;
10795;SDS011;5450;42.994;23.372;2022-11-11T05:13:38;17.77;;;13.93;;
10795;SDS011;5450;42.994;23.372;2022-11-11T05:16:24;20.10;;;12.77;;
10795;SDS011;5450;42.994;23.372;2022-11-11T05:19:13;17.53;;;13.40;;
10795;SDS011;5450;42.994;23.372;2022-11-11T05:22:02;15.90;;;12.83;;
10795;SDS011;5450;42.994;23.372;2022-11-11T05:24:34;22.33;;;13.27;;
10795;SDS011;5450;42.994;23.372;2022-11-11T05:27:18;18.17;;;13.77;;
10795;SDS011;5450;42.994;23.372;2022-11-11T05:29:46;17.83;;;13.70;;
10795;SDS011;5450;42.994;23.372;2022-11-11T05:32:15;21.20;;;14.67;;
10795;SDS011;5450;42.994;23.372;2022-11-11T05:34:42;18.50;;;14.37;;
10795;SDS011;5450;42.994;23.372;2022-11-11T05:37:11;19.20;;;14.83;;
10795;SDS011;5450;42.994;23.372;2022-11-11T05:39:41;16.93;;;14.27;;
10795;SDS011;5450;42.994;23.372;2022-11-11T05:42:08;17.97;;;14.10;;
10795;SDS011;5450;42.994;23.372;2022-11-11T05:44:35;19.20;;;14.70;;
10795;SDS011;5450;42.994;23.372;2022-11-11T05:47:02;19.40;;;14.20;;
10795;SDS011;5450;42.994;23.372;2022-11-11T05:49:29;19.50;;;14.57;;
10795;SDS011;5450;42.994;23.372;2022-11-11T05:52:01;19.67;;;15.30;;
10795;SDS011;5450;42.994;23.372;2022-11-11T05:54:32;21.10;;;15.40;;
10795;SDS011;5450;42.994;23.372;2022-11-11T05:57:01;19.47;;;15.30;;
10795;SDS011;5450;42.994;23.372;2022-11-11T05:59:28;20.53;;;15.27;;
10795;SDS011;5450;42.994;23.372;2022-11-11T06:01:55;21.73;;;15.43;;
10795;SDS011;5450;42.994;23.372;2022-11-11T06:04:22;23.07;;;15.50;;
10795;SDS011;5450;42.994;23.372;2022-11-11T06:06:50;19.77;;;14.83;;
10795;SDS011;5450;42.994;23.372;2022-11-11T06:09:17;20.90;;;14.80;;
10795;SDS011;5450;42.994;23.372;2022-11-11T06:11:47;21.30;;;15.57;;
10795;SDS011;5450;42.994;23.372;2022-11-11T06:14:14;19.50;;;15.30;;
10795;SDS011;5450;42.994;23.372;2022-11-11T06:16:42;21.53;;;16.20;;
10795;SDS011;5450;42.994;23.372;2022-11-11T06:19:09;21.20;;;15.93;;
10795;SDS011;5450;42.994;23.372;2022-11-11T06:21:37;20.10;;;15.67;;
10795;SDS011;5450;42.994;23.372;2022-11-11T06:24:19;24.00;;;17.37;;
10795;SDS011;5450;42.994;23.372;2022-11-11T06:26:48;22.23;;;16.43;;
10795;SDS011;5450;42.994;23.372;2022-11-11T06:29:14;23.37;;;17.40;;
10795;SDS011;5450;42.994;23.372;2022-11-11T06:31:41;23.00;;;18.07;;
10795;SDS011;5450;42.994;23.372;2022-11-11T06:34:10;21.80;;;16.93;;
10795;SDS011;5450;42.994;23.372;2022-11-11T06:36:37;19.20;;;15.50;;
10795;SDS011;5450;42.994;23.372;2022-11-11T06:39:07;21.60;;;16.27;;
10795;SDS011;5450;42.994;23.372;2022-11-11T06:41:36;19.97;;;15.73;;
10795;SDS011;5450;42.994;23.372;2022-11-11T06:44:04;23.57;;;16.17;;
10795;SDS011;5450;42.994;23.372;2022-11-11T06:46:31;22.10;;;16.70;;
10795;SDS011;5450;42.994;23.372;2022-11-11T06:49:02;25.67;;;16.97;;
10795;SDS011;5450;42.994;23.372;2022-11-11T06:51:30;24.83;;;17.97;;
10795;SDS011;5450;42.994;23.372;2022-11-11T06:53:58;25.37;;;17.50;;
10795;SDS011;5450;42.994;23.372;2022-11-11T06:56:26;25.07;;;19.10;;
10795;SDS011;5450;42.994;23.372;2022-11-11T06:58:53;28.57;;;19.57;;
10795;SDS011;5450;42.994;23.372;2022-11-11T07:01:25;26.40;;;19.03;;
10795;SDS011;5450;42.994;23.372;2022-11-11T07:03:52;27.13;;;19.73;;
10795;SDS011;5450;42.994;23.372;2022-11-11T07:06:24;27.03;;;19.77;;
10795;SDS011;5450;42.994;23.372;2022-11-11T07:08:51;26.37;;;18.83;;
10795;SDS011;5450;42.994;23.372;2022-11-11T07:11:18;27.73;;;17.57;;
10795;SDS011;5450;42.994;23.372;2022-11-11T07:13:45;25.57;;;17.93;;
10795;SDS011;5450;42.994;23.372;2022-11-11T07:16:12;24.27;;;17.37;;
10795;SDS011;5450;42.994;23.372;2022-11-11T07:18:40;23.73;;;18.00;;
10795;SDS011;5450;42.994;23.372;2022-11-11T07:21:07;24.23;;;17.10;;
10795;SDS011;5450;42.994;23.372;2022-11-11T07:23:40;25.07;;;18.03;;
10795;SDS011;5450;42.994;23.372;2022-11-11T07:26:07;24.67;;;16.77;;
10795;SDS011;5450;42.994;23.372;2022-11-11T07:28:36;24.83;;;16.97;;
10795;SDS011;5450;42.994;23.372;2022-11-11T07:31:03;24.23;;;16.53;;
10795;SDS011;5450;42.994;23.372;2022-11-11T07:33:30;22.97;;;15.70;;
10795;SDS011;5450;42.994;23.372;2022-11-11T07:35:58;23.57;;;16.80;;
10795;SDS011;5450;42.994;23.372;2022-11-11T07:38:25;27.63;;;18.07;;
10795;SDS011;5450;42.994;23.372;2022-11-11T07:40:52;25.17;;;17.80;;
10795;SDS011;5450;42.994;23.372;2022-11-11T07:43:19;22.90;;;17.27;;
10795;SDS011;5450;42.994;23.372;2022-11-11T07:45:46;18.47;;;14.73;;
10795;SDS011;5450;42.994;23.372;2022-11-11T07:48:13;21.90;;;15.87;;
10795;SDS011;5450;42.994;23.372;2022-11-11T07:50:43;22.57;;;17.40;;
10795;SDS011;5450;42.994;23.372;2022-11-11T07:53:11;25.10;;;18.03;;
10795;SDS011;5450;42.994;23.372;2022-11-11T07:55:38;21.30;;;16.73;;
10795;SDS011;5450;42.994;23.372;2022-11-11T07:58:06;20.03;;;15.87;;
10795;SDS011;5450;42.994;23.372;2022-11-11T08:00:35;23.17;;;16.50;;
10795;SDS011;5450;42.994;23.372;2022-11-11T08:03:03;22.10;;;16.37;;
10795;SDS011;5450;42.994;23.372;2022-11-11T08:05:33;22.80;;;17.47;;
10795;SDS011;5450;42.994;23.372;2022-11-11T08:08:02;22.73;;;16.97;;
10795;SDS011;5450;42.994;23.372;2022-11-11T08:10:32;22.60;;;17.40;;
10795;SDS011;5450;42.994;23.372;2022-11-11T08:13:01;23.67;;;17.50;;
10795;SDS011;5450;42.994;23.372;2022-11-11T08:15:45;24.43;;;18.63;;
10795;SDS011;5450;42.994;23.372;2022-11-11T08:18:13;23.70;;;18.13;;
10795;SDS011;5450;42.994;23.372;2022-11-11T08:20:40;26.53;;;18.03;;
10795;SDS011;5450;42.994;23.372;2022-11-11T08:23:07;24.53;;;18.40;;
10795;SDS011;5450;42.994;23.372;2022-11-11T08:25:36;24.13;;;18.23;;
10795;SDS011;5450;42.994;23.372;2022-11-11T08:28:04;23.67;;;17.93;;
10795;SDS011;5450;42.994;23.372;2022-11-11T08:30:32;25.77;;;19.23;;
10795;SDS011;5450;42.994;23.372;2022-11-11T08:33:00;22.80;;;17.53;;
10795;SDS011;5450;42.994;23.372;2022-11-11T08:35:28;24.43;;;18.20;;
10795;SDS011;5450;42.994;23.372;2022-11-11T08:37:59;25.20;;;17.90;;
10795;SDS011;5450;42.994;23.372;2022-11-11T08:40:27;23.17;;;17.20;;
10795;SDS011;5450;42.994;23.372;2022-11-11T08:42:56;24.03;;;17.97;;
10795;SDS011;5450;42.994;23.372;2022-11-11T08:45:23;26.10;;;17.77;;
10795;SDS011;5450;42.994;23.372;2022-11-11T08:47:51;23.17;;;17.57;;
10795;SDS011;5450;42.994;23.372;2022-11-11T08:50:18;22.97;;;18.50;;
10795;SDS011;5450;42.994;23.372;2022-11-11T08:52:45;25.80;;;18.63;;
10795;SDS011;5450;42.994;23.372;2022-11-11T08:55:12;24.17;;;17.73;;
10795;SDS011;5450;42.994;23.372;2022-11-11T08:57:39;22.97;;;16.87;;
10795;SDS011;5450;42.994;23.372;2022-11-11T09:00:08;23.87;;;17.30;;
10795;SDS011;5450;42.994;23.372;2022-11-11T09:02:36;21.23;;;17.17;;
10795;SDS011;5450;42.994;23.372;2022-11-11T09:05:03;22.93;;;17.00;;
10795;SDS011;5450;42.994;23.372;2022-11-11T09:07:31;24.80;;;18.00;;
10795;SDS011;5450;42.994;23.372;2022-11-11T09:09:58;25.80;;;17.43;;
10795;SDS011;5450;42.994;23.372;2022-11-11T09:12:25;19.90;;;16.17;;
10795;SDS011;5450;42.994;23.372;2022-11-11T09:14:52;21.07;;;17.03;;
10795;SDS011;5450;42.994;23.372;2022-11-11T09:17:21;25.70;;;17.80;;
10795;SDS011;5450;42.994;23.372;2022-11-11T09:19:48;21.83;;;17.13;;
10795;SDS011;5450;42.994;23.372;2022-11-11T09:22:15;23.93;;;17.70;;
10795;SDS011;5450;42.994;23.372;2022-11-11T09:24:42;24.87;;;18.37;;
10795;SDS011;5450;42.994;23.372;2022-11-11T09:27:09;22.53;;;17.37;;
10795;SDS011;5450;42.994;23.372;2022-11-11T09:29:37;22.73;;;18.17;;
10795;SDS011;5450;42.994;23.372;2022-11-11T09:32:04;22.73;;;18.30;;
10795;SDS011;5450;42.994;23.372;2022-11-11T09:34:33;25.03;;;18.03;;
10795;SDS011;5450;42.994;23.372;2022-11-11T09:37:00;23.87;;;17.73;;
10795;SDS011;5450;42.994;23.372;2022-11-11T09:39:27;25.90;;;18.00;;
10795;SDS011;5450;42.994;23.372;2022-11-11T09:41:56;26.57;;;20.57;;
10795;SDS011;5450;42.994;23.372;2022-11-11T09:44:35;29.17;;;19.90;;
10795;SDS011;5450;42.994;23.372;2022-11-11T09:47:20;29.77;;;21.33;;
10795;SDS011;5450;42.994;23.372;2022-11-11T09:49:59;30.63;;;21.10;;
10795;SDS011;5450;42.994;23.372;2022-11-11T09:52:33;31.97;;;21.37;;
10795;SDS011;5450;42.994;23.372;2022-11-11T09:55:11;31.53;;;22.03;;
10795;SDS011;5450;42.994;23.372;2022-11-11T09:57:44;34.07;;;22.57;;
10795;SDS011;5450;42.994;23.372;2022-11-11T10:00:16;36.27;;;25.23;;
10795;SDS011;5450;42.994;23.372;2022-11-11T10:02:48;41.33;;;26.33;;
10795;SDS011;5450;42.994;23.372;2022-11-11T10:05:20;40.00;;;26.33;;
10795;SDS011;5450;42.994;23.372;2022-11-11T10:07:51;46.50;;;30.10;;
10795;SDS011;5450;42.994;23.372;2022-11-11T10:10:24;43.00;;;27.60;;
10795;SDS011;5450;42.994;23.372;2022-11-11T10:12:57;40.13;;;26.53;;
10795;SDS011;5450;42.994;23.372;2022-11-11T10:15:26;38.97;;;27.40;;
10795;SDS011;5450;42.994;23.372;2022-11-11T10:18:03;34.50;;;23.93;;
10795;SDS011;5450;42.994;23.372;2022-11-11T10:20:40;38.60;;;23.90;;
10795;SDS011;5450;42.994;23.372;2022-11-11T10:23:11;35.17;;;24.47;;
10795;SDS011;5450;42.994;23.372;2022-11-11T10:25:41;37.43;;;23.93;;
10795;SDS011;5450;42.994;23.372;2022-11-11T10:28:25;34.10;;;23.93;;
10795;SDS011;5450;42.994;23.372;2022-11-11T10:30:55;39.57;;;27.43;;
10795;SDS011;5450;42.994;23.372;2022-11-11T10:33:26;33.83;;;22.83;;
10795;SDS011;5450;42.994;23.372;2022-11-11T10:35:59;34.90;;;26.27;;
10795;SDS011;5450;42.994;23.372;2022-11-11T10:38:31;37.97;;;28.10;;
10795;SDS011;5450;42.994;23.372;2022-11-11T10:41:04;38.27;;;26.57;;
10795;SDS011;5450;42.994;23.372;2022-11-11T10:43:37;39.50;;;26.13;;
10795;SDS011;5450;42.994;23.372;2022-11-11T10:46:06;33.57;;;24.93;;
10795;SDS011;5450;42.994;23.372;2022-11-11T10:48:43;34.53;;;25.03;;
10795;SDS011;5450;42.994;23.372;2022-11-11T10:51:18;36.03;;;26.40;;
10795;SDS011;5450;42.994;23.372;2022-11-11T10:53:48;34.67;;;24.33;;
10795;SDS011;5450;42.994;23.372;2022-11-11T10:56:25;35.47;;;24.30;;
10795;SDS011;5450;42.994;23.372;2022-11-11T10:59:01;36.50;;;23.97;;
10795;SDS011;5450;42.994;23.372;2022-11-11T11:01:37;40.53;;;24.80;;
10795;SDS011;5450;42.994;23.372;2022-11-11T11:04:08;42.27;;;26.67;;
10795;SDS011;5450;42.994;23.372;2022-11-11T11:06:43;61.17;;;28.33;;
10795;SDS011;5450;42.994;23.372;2022-11-11T11:09:12;40.07;;;24.03;;
10795;SDS011;5450;42.994;23.372;2022-11-11T11:11:46;37.90;;;25.30;;
10795;SDS011;5450;42.994;23.372;2022-11-11T11:14:22;153.00;;;33.23;;
10795;SDS011;5450;42.994;23.372;2022-11-11T11:16:54;32.00;;;23.17;;
10795;SDS011;5450;42.994;23.372;2022-11-11T11:19:29;29.17;;;20.10;;
10795;SDS011;5450;42.994;23.372;2022-11-11T11:22:00;27.13;;;19.93;;
10795;SDS011;5450;42.994;23.372;2022-11-11T11:24:30;26.20;;;19.23;;
10795;SDS011;5450;42.994;23.372;2022-11-11T11:27:00;25.33;;;18.93;;
10795;SDS011;5450;42.994;23.372;2022-11-11T11:29:29;33.83;;;21.23;;
10795;SDS011;5450;42.994;23.372;2022-11-11T11:32:11;31.27;;;23.37;;
10795;SDS011;5450;42.994;23.372;2022-11-11T11:34:52;28.20;;;20.57;;
10795;SDS011;5450;42.994;23.372;2022-11-11T11:37:22;28.07;;;20.60;;
10795;SDS011;5450;42.994;23.372;2022-11-11T11:39:57;32.90;;;22.47;;
10795;SDS011;5450;42.994;23.372;2022-11-11T11:42:26;24.63;;;19.27;;
10795;SDS011;5450;42.994;23.372;2022-11-11T11:44:56;26.70;;;18.87;;
10795;SDS011;5450;42.994;23.372;2022-11-11T11:47:36;26.10;;;20.07;;
10795;SDS011;5450;42.994;23.372;2022-11-11T11:53:21;22.60;;;17.10;;
10795;SDS011;5450;42.994;23.372;2022-11-11T11:56:03;18.67;;;15.03;;
10795;SDS011;5450;42.994;23.372;2022-11-11T11:58:44;19.17;;;15.27;;
10795;SDS011;5450;42.994;23.372;2022-11-11T12:01:24;12.20;;;10.87;;
10795;SDS011;5450;42.994;23.372;2022-11-11T12:06:54;8.33;;;7.00;;
10795;SDS011;5450;42.994;23.372;2022-11-11T12:09:35;6.13;;;5.60;;
10795;SDS011;5450;42.994;23.372;2022-11-11T12:12:13;6.30;;;5.67;;
10795;SDS011;5450;42.994;23.372;2022-11-11T12:14:59;6.17;;;5.67;;
10795;SDS011;5450;42.994;23.372;2022-11-11T12:17:40;7.83;;;5.87;;
10795;SDS011;5450;42.994;23.372;2022-11-11T12:20:22;11.00;;;8.40;;
10795;SDS011;5450;42.994;23.372;2022-11-11T12:25:53;7.30;;;6.20;;
10795;SDS011;5450;42.994;23.372;2022-11-11T12:28:39;6.83;;;6.03;;
10795;SDS011;5450;42.994;23.372;2022-11-11T12:31:21;8.33;;;7.40;;
10795;SDS011;5450;42.994;23.372;2022-11-11T12:34:01;8.13;;;6.70;;
10795;SDS011;5450;42.994;23.372;2022-11-11T12:36:48;7.60;;;5.93;;
10795;SDS011;5450;42.994;23.372;2022-11-11T12:39:31;6.10;;;5.50;;
10795;SDS011;5450;42.994;23.372;2022-11-11T12:42:17;5.37;;;4.87;;
10795;SDS011;5450;42.994;23.372;2022-11-11T12:44:54;8.77;;;5.10;;
10795;SDS011;5450;42.994;23.372;2022-11-11T12:47:33;5.90;;;5.17;;
10795;SDS011;5450;42.994;23.372;2022-11-11T12:50:06;5.60;;;4.50;;
10795;SDS011;5450;42.994;23.372;2022-11-11T12:52:50;5.40;;;4.90;;
10795;SDS011;5450;42.994;23.372;2022-11-11T12:55:34;4.80;;;4.40;;
10795;SDS011;5450;42.994;23.372;2022-11-11T12:58:13;5.13;;;4.70;;
10795;SDS011;5450;42.994;23.372;2022-11-11T13:00:52;5.70;;;5.17;;
10795;SDS011;5450;42.994;23.372;2022-11-11T13:03:40;5.60;;;4.87;;
10795;SDS011;5450;42.994;23.372;2022-11-11T13:06:20;5.40;;;4.90;;
10795;SDS011;5450;42.994;23.372;2022-11-11T13:09:09;5.93;;;5.43;;
10795;SDS011;5450;42.994;23.372;2022-11-11T13:11:48;5.83;;;5.33;;
10795;SDS011;5450;42.994;23.372;2022-11-11T13:14:33;5.50;;;5.00;;
10795;SDS011;5450;42.994;23.372;2022-11-11T13:17:10;5.47;;;4.83;;
10795;SDS011;5450;42.994;23.372;2022-11-11T13:19:39;5.53;;;5.10;;
10795;SDS011;5450;42.994;23.372;2022-11-11T13:22:11;6.30;;;5.70;;
10795;SDS011;5450;42.994;23.372;2022-11-11T13:24:49;5.70;;;5.10;;
10795;SDS011;5450;42.994;23.372;2022-11-11T13:27:21;6.10;;;5.60;;
10795;SDS011;5450;42.994;23.372;2022-11-11T13:33:11;5.80;;;5.20;;
10795;SDS011;5450;42.994;23.372;2022-11-11T13:35:41;5.60;;;5.10;;
10795;SDS011;5450;42.994;23.372;2022-11-11T13:38:13;8.60;;;5.97;;
10795;SDS011;5450;42.994;23.372;2022-11-11T13:40:51;7.07;;;6.37;;
10795;SDS011;5450;42.994;23.372;2022-11-11T13:43:20;6.70;;;6.10;;
10795;SDS011;5450;42.994;23.372;2022-11-11T13:45:53;6.03;;;5.53;;
10795;SDS011;5450;42.994;23.372;2022-11-11T13:48:25;6.73;;;6.13;;
10795;SDS011;5450;42.994;23.372;2022-11-11T13:53:45;6.60;;;6.00;;
10795;SDS011;5450;42.994;23.372;2022-11-11T13:56:21;5.93;;;5.40;;
10795;SDS011;5450;42.994;23.372;2022-11-11T13:58:53;5.87;;;5.37;;
10795;SDS011;5450;42.994;23.372;2022-11-11T14:01:22;6.87;;;6.20;;
10795;SDS011;5450;42.994;23.372;2022-11-11T14:03:59;6.30;;;5.80;;
10795;SDS011;5450;42.994;23.372;2022-11-11T14:12:33;6.13;;;5.53;;
10795;SDS011;5450;42.994;23.372;2022-11-11T14:15:02;5.63;;;5.17;;
10795;SDS011;5450;42.994;23.372;2022-11-11T14:17:32;6.37;;;5.80;;
10795;SDS011;5450;42.994;23.372;2022-11-11T14:28:55;6.27;;;5.53;;
10795;SDS011;5450;42.994;23.372;2022-11-11T14:34:45;6.03;;;5.47;;
10795;SDS011;5450;42.994;23.372;2022-11-11T14:40:23;6.07;;;5.53;;
10795;SDS011;5450;42.994;23.372;2022-11-11T14:42:54;6.20;;;5.60;;
10795;SDS011;5450;42.994;23.372;2022-11-11T14:54:16;6.83;;;6.13;;
10795;SDS011;5450;42.994;23.372;2022-11-11T14:56:57;7.37;;;6.67;;
10795;SDS011;5450;42.994;23.372;2022-11-11T14:59:28;8.53;;;7.27;;
10795;SDS011;5450;42.994;23.372;2022-11-11T15:01:57;9.77;;;7.93;;
10795;SDS011;5450;42.994;23.372;2022-11-11T15:04:26;10.60;;;8.23;;
10795;SDS011;5450;42.994;23.372;2022-11-11T15:07:13;9.00;;;8.07;;
10795;SDS011;5450;42.994;23.372;2022-11-11T15:12:54;11.33;;;9.87;;
10795;SDS011;5450;42.994;23.372;2022-11-11T15:15:32;12.77;;;11.43;;
10795;SDS011;5450;42.994;23.372;2022-11-11T15:18:26;12.63;;;11.33;;
10795;SDS011;5450;42.994;23.372;2022-11-11T15:21:12;21.67;;;14.90;;
10795;SDS011;5450;42.994;23.372;2022-11-11T15:30:20;13.10;;;10.63;;
10795;SDS011;5450;42.994;23.372;2022-11-11T15:33:01;15.07;;;12.33;;
10795;SDS011;5450;42.994;23.372;2022-11-11T15:35:35;12.33;;;10.97;;
10795;SDS011;5450;42.994;23.372;2022-11-11T15:38:13;20.73;;;16.10;;
10795;SDS011;5450;42.994;23.372;2022-11-11T15:43:50;12.40;;;11.10;;
10795;SDS011;5450;42.994;23.372;2022-11-11T15:46:24;14.57;;;10.30;;
10795;SDS011;5450;42.994;23.372;2022-11-11T15:52:23;13.43;;;8.93;;
10795;SDS011;5450;42.994;23.372;2022-11-11T15:54:54;11.63;;;8.77;;
10795;SDS011;5450;42.994;23.372;2022-11-11T15:57:23;9.17;;;8.20;;